Latest Coastal Weather Observations for Point Perpendicular

IDN60701

Issued at 12:01 am EDT Friday 23 February 2018 (issued every 10 minutes, with the page automatically refreshed every 10 minutes)

About coastal observations | Map of coastal stations | Coastal observations for NSW | Marine services | Other Formats
Station Details ID: 068151 Name: POINT PERPENDICULAR AWS Lat: -35.09 Lon: 150.80 Height: 85.0 m
Data from the previous 72 hours. | See also: Recent months at Point Perpendicular
Date/Time
EDT
Temp
°C
Wind Pressure Rain since
9am
mm
Weather Cloud Vis
km
Sea
Height
m
Swell
Dir  Spd
kts
Gust
kts
hPa Trend Height
m
Period
s
Dir
23/12:00am 20.5 N 6 7 1016.6 - 0.0 - - - - - - -
 
Date/Time
EDT
Temp
°C
Wind Pressure Rain since
9am
mm
Weather Cloud Vis
km
Sea
Height
m
Swell
Dir  Spd
kts
Gust
kts
hPa Trend Height
m
Period
s
Dir
22/11:30pm 20.9 NNE 7 10 1016.6 - 0.0 - - - - - - -
22/11:00pm 21.2 NNE 9 13 1016.5 - 0.0 - - - - - - -
22/10:30pm 21.5 NNE 9 13 1016.4 - 0.0 - - - - - - -
22/10:00pm 21.5 NNE 10 16 1016.7 - 0.0 - - - - - - -
22/09:30pm 21.4 NNE 12 18 1016.4 - 0.0 - - - - - - -
22/09:00pm 21.5 NNE 11 16 1016.3 - 0.0 - - - - - - -
22/08:30pm 21.5 NNE 10 15 1016.2 - 0.0 - - - - - - -
22/08:00pm 21.6 NNE 10 14 1015.8 - 0.0 - - - - - - -
22/07:30pm 22.0 NNE 13 18 1015.6 - 0.0 - - - - - - -
22/07:00pm 22.7 NNE 14 19 1015.1 - 0.0 - - - - - - -
22/06:30pm 23.3 NNE 12 17 1015.1 - 0.0 - - - - - - -
22/06:00pm 23.0 NE 12 19 1014.9 - 0.0 - - - - - - -
22/05:30pm 23.1 NNE 12 18 1014.9 - 0.0 - - - - - - -
22/05:00pm 23.4 NE 11 17 1014.9 - 0.0 - - - - - - -
22/04:30pm 22.9 NE 9 15 1015.0 - 0.0 - - - - - - -
22/04:00pm 23.2 NE 10 14 1015.1 - 0.0 - - - - - - -
22/03:30pm 23.2 NE 11 14 1015.3 - 0.0 - - - - - - -
22/03:00pm 24.3 ENE 9 13 1015.8 - 0.0 - - - - - - -
22/02:30pm 24.0 NE 8 12 1016.0 - 0.0 - - - - - - -
22/02:00pm 23.4 ENE 6 10 1016.4 - 0.0 - - - - - - -
22/01:30pm 22.9 NE 7 10 1016.5 - 0.0 - - - - - - -
22/01:00pm 23.2 NE 7 10 1016.8 - 0.0 - - - - - - -
22/12:30pm 24.4 NE 7 11 1017.1 - 0.0 - - - - - - -
22/12:00pm 22.7 NNE 7 12 1017.6 - 0.0 - - - - - - -
22/11:30am 22.6 NNE 5 10 1017.6 - 0.0 - - - - - - -
22/11:00am 21.1 NNE 5 7 1018.0 - 0.0 - - - - - - -
22/10:30am 21.1 NNE 3 6 1018.0 - 0.0 - - - - - - -
22/10:00am 21.4 NNE 3 6 1017.9 - 0.0 - - - - - - -
22/09:30am 20.1 WSW 1 2 1018.0 - 0.0 - - - - - - -
22/09:00am 19.6 S 1 3 1018.0 - 0.0 - - - - - - -
22/08:30am 18.8 NNW 1 2 1017.3 - 0.0 - - - - - - -
22/08:00am 18.2 CALM 0 1 1017.2 - 0.0 - - - - - - -
22/07:30am 18.0 N 1 2 1017.0 - 0.0 - - - - - - -
22/07:00am 17.6 NW 4 5 1016.9 - 0.0 - - - - - - -
22/06:30am 17.7 WNW 3 4 1016.9 - 0.0 - - - - - - -
22/06:00am 17.9 WNW 2 4 1016.6 - 0.0 - - - - - - -
22/05:30am 17.7 WNW 3 3 1016.7 - 0.0 - - - - - - -
22/05:00am 18.1 NW 3 4 1016.5 - 0.0 - - - - - - -
22/04:30am 18.4 W 1 2 1016.3 - 0.0 - - - - - - -
22/04:00am 18.8 W 1 2 1016.5 - 0.0 - - - - - - -
22/03:30am 18.6 WNW 2 2 1016.5 - 0.0 - - - - - - -
22/03:00am 18.5 WNW 2 3 1016.9 - 0.0 - - - - - - -
22/02:30am 18.3 NW 3 4 1016.9 - 0.0 - - - - - - -
22/02:00am 17.9 NNW 3 4 1016.8 - 0.0 - - - - - - -
22/01:30am 18.1 N 5 6 1017.0 - 0.0 - - - - - - -
22/01:00am 18.6 N 6 7 1017.3 - 0.0 - - - - - - -
22/12:30am 18.8 N 5 6 1017.5 - 0.0 - - - - - - -
22/12:00am 19.3 N 6 7 1017.5 - 0.0 - - - - - - -
 
Date/Time
EDT
Temp
°C
Wind Pressure Rain since
9am
mm
Weather Cloud Vis
km
Sea
Height
m
Swell
Dir  Spd
kts
Gust
kts
hPa Trend Height
m
Period
s
Dir
21/11:30pm 20.0 NNE 9 12 1017.7 - 0.0 - - - - - - -
21/11:00pm 19.8 NNE 9 14 1018.2 - 0.0 - - - - - - -
21/10:30pm 20.1 NNE 9 14 1018.0 - 0.0 - - - - - - -
21/10:00pm 20.0 NE 9 14 1018.0 - 0.0 - - - - - - -
21/09:30pm 19.8 NNE 9 13 1018.0 - 0.0 - - - - - - -
21/09:00pm 20.1 NE 9 13 1017.6 - 0.0 - - - - - - -
21/08:30pm 19.9 NE 9 13 1017.1 - 0.0 - - - - - - -
21/08:00pm 19.8 NE 10 14 1016.9 - 0.0 - - - - - - -
21/07:30pm 19.9 NE 10 15 1016.7 - 0.0 - - - - - - -
21/07:00pm 20.0 NE 11 14 1016.6 - 0.0 - - - - - - -
21/06:30pm 20.1 NE 9 14 1016.5 - 0.0 - - - - - - -
21/06:00pm 20.3 NE 9 13 1016.7 - 0.0 - - - - - - -
21/05:30pm 20.5 ENE 10 13 1016.7 - 0.0 - - - - - - -
21/05:00pm 20.8 ENE 9 13 1016.6 - 0.0 - - - - - - -
21/04:30pm 20.7 ENE 9 13 1016.8 - 0.0 - - - - - - -
21/04:00pm 20.6 ENE 9 13 1017.0 - 0.0 - - - - - - -
21/03:30pm 22.0 ENE 9 13 1017.6 - 0.0 - - - - - - -
21/03:00pm 22.6 NE 10 19 1017.5 - 0.0 - - - - - - -
21/02:30pm 22.7 ENE 9 13 1017.9 - 0.0 - - - - - - -
21/02:00pm 21.7 ENE 9 14 1018.1 - 0.0 - - - - - - -
21/01:30pm 21.5 ENE 9 15 1018.6 - 0.0 - - - - - - -
21/01:00pm 21.7 ENE 10 15 1018.8 - 0.0 - - - - - - -
21/12:30pm 21.2 E 8 13 1019.4 - 0.0 - - - - - - -
21/12:00pm 20.9 NE 5 9 1019.7 - 0.0 - - - - - - -
21/11:30am 20.7 E 5 7 1019.9 - 0.0 - - - - - - -
21/11:00am 20.6 ESE 5 8 1019.9 - 0.0 - - - - - - -
21/10:30am 20.3 SW 2 5 1020.1 - 0.0 - - - - - - -
21/10:00am 20.0 NW 1 3 1020.1 - 0.0 - - - - - - -
21/09:30am 19.7 WSW 2 5 1020.1 - 0.0 - - - - - - -
21/09:00am 18.8 SW 5 6 1019.9 - 0.2 - - - - - - -
21/08:30am 18.7 W 1 4 1019.7 - 0.2 - - - - - - -
21/08:00am 19.1 WNW 3 5 1019.5 - 0.2 - - - - - - -
21/07:30am 19.0 WSW 1 2 1019.2 - 0.2 - - - - - - -
21/07:00am 18.9 ESE 3 4 1019.1 - 0.2 - - - - - - -
21/06:30am 18.8 SE 3 5 1019.0 - 0.2 - - - - - - -
21/06:00am 18.8 SE 5 8 1018.8 - 0.2 - - - - - - -
21/05:30am 18.9 E 3 6 1018.6 - 0.2 - - - - - - -
21/05:00am 18.9 ESE 5 8 1018.5 - 0.2 - - - - - - -
21/04:30am 18.8 ESE 5 8 1018.7 - 0.2 - - - - - - -
21/04:00am 18.8 ESE 5 8 1019.0 - 0.2 - - - - - - -
21/03:30am 18.8 ESE 5 10 1019.1 - 0.2 - - - - - - -
21/03:00am 18.8 SE 6 9 1019.4 - 0.2 - - - - - - -
21/02:30am 18.6 SSE 3 6 1019.6 - 0.2 - - - - - - -
21/02:00am 18.6 SSE 4 8 1019.7 - 0.2 - - - - - - -
21/01:30am 18.9 SE 5 10 1019.7 - 0.2 - - - - - - -
21/01:00am 18.9 SSE 3 6 1020.0 - 0.2 - - - - - - -
21/12:30am 18.7 S 5 7 1019.9 - 0.2 - - - - - - -
21/12:00am 18.8 SSE 5 10 1020.0 - 0.2 - - - - - - -
 
Date/Time
EDT
Temp
°C
Wind Pressure Rain since
9am
mm
Weather Cloud Vis
km
Sea
Height
m
Swell
Dir  Spd
kts
Gust
kts
hPa Trend Height
m
Period
s
Dir
20/11:30pm 18.7 S 3 5 1020.1 - 0.2 - - - - - - -
20/11:00pm 18.5 SE 4 7 1020.4 - 0.2 - - - - - - -
20/10:30pm 18.7 SSE 7 11 1020.1 - 0.2 - - - - - - -
20/10:00pm 18.7 S 7 10 1020.3 - 0.2 - - - - - - -
20/09:30pm 18.7 S 6 10 1020.1 - 0.2 - - - - - - -
20/09:00pm 18.6 S 7 11 1020.0 - 0.2 - - - - - - -
20/08:30pm 18.3 SSE 7 11 1020.1 - 0.2 - - - - - - -
20/08:00pm 18.2 SSE 13 19 1019.9 - 0.2 - - - - - - -
20/07:30pm 18.4 S 8 13 1019.6 - 0.2 - - - - - - -
20/07:00pm 18.5 SSE 11 17 1019.4 - 0.2 - - - - - - -
20/06:30pm 18.8 S 9 15 1019.3 - 0.2 - - - - - - -
20/06:00pm 19.1 S 9 15 1019.3 - 0.2 - - - - - - -
20/05:30pm 19.4 S 11 16 1019.3 - 0.2 - - - - - - -
20/05:00pm 19.9 S 11 17 1019.3 - 0.2 - - - - - - -
20/04:30pm 19.6 S 11 17 1019.3 - 0.2 - - - - - - -
20/04:00pm 19.6 S 10 15 1019.2 - 0.2 - - - - - - -
20/03:30pm 19.4 S 11 15 1019.3 - 0.2 - - - - - - -
20/03:00pm 19.0 SSE 7 11 1019.7 - 0.2 - - - - - - -
20/02:30pm 19.8 S 9 15 1019.9 - 0.2 - - - - - - -
20/02:00pm 19.3 S 12 19 1020.1 - 0.2 - - - - - - -
20/01:30pm 19.5 S 11 16 1020.4 - 0.2 - - - - - - -
20/01:00pm 19.8 SSE 11 16 1020.5 - 0.2 - - - - - - -
20/12:30pm 19.3 S 13 19 1020.2 - 0.2 - - - - - - -
20/12:00pm 19.1 S 14 20 1020.2 - 0.2 - - - - - - -
20/11:30am 19.6 S 15 23 1020.2 - 0.2 - - - - - - -
20/11:00am 19.5 S 14 22 1020.0 - 0.2 - - - - - - -
20/10:30am 18.9 S 9 17 1020.3 - 0.0 - - - - - - -
20/10:00am 18.7 S 12 19 1020.5 - 0.0 - - - - - - -
20/09:30am 19.0 S 12 19 1020.2 - 0.0 - - - - - - -
20/09:00am 19.0 S 14 19 1020.0 - 2.8 - - - - - - -
20/08:30am 18.8 S 15 26 1019.4 - 2.8 - - - - - - -
20/08:23am 18.8 S 15 26 1019.3 - 2.8 - - - - - - -
20/08:00am 18.7 S 15 23 1019.3 - 2.8 - - - - - - -
20/07:30am 18.4 S 14 22 1018.6 - 2.8 - - - - - - -
20/07:00am 19.1 S 11 16 1018.5 - 2.8 - - - - - - -
20/06:30am 19.0 S 11 17 1018.0 - 2.8 - - - - - - -
20/06:00am 18.9 S 14 22 1017.8 - 2.8 - - - - - - -
20/05:30am 18.8 S 16 26 1016.7 - 2.8 - - - - - - -
20/05:23am 18.9 S 16 26 1016.7 - 2.8 - - - - - - -
20/05:00am 19.1 S 14 24 1016.5 - 2.8 - - - - - - -
20/04:30am 18.9 SSE 15 24 1016.6 - 2.8 - - - - - - -
20/04:00am 18.7 SSE 15 24 1016.1 - 2.8 - - - - - - -
20/03:39am 18.1 SSE 15 26 1016.5 - 2.8 - - - - - - -
20/03:30am 17.8 S 11 20 1016.2 - 2.8 - - - - - - -
20/03:11am 17.9 SSE 15 25 1016.4 - 2.4 - - - - - - -
20/03:00am 18.8 SSE 11 20 1016.0 - 2.4 Recent precip. - - - - - -
20/02:30am 17.8 SSE 14 22 1017.0 - 2.4 - - - - - - -
20/02:00am 18.1 SSE 14 24 1016.8 - 1.8 - - - - - - -
20/01:30am 19.7 SSE 13 23 1016.3 - 1.0 - - - - - - -
20/01:00am 19.6 SSE 17 28 1016.1 - 1.0 - - - - - - -
20/12:32am 19.9 SSE 16 28 1015.7 - 1.0 - - - - - - -
20/12:30am 20.0 SSE 16 25 1015.5 - 1.0 - - - - - - -

Other Formats:

Comma delimited format used in spreadsheet applications
http://www.bom.gov.au/fwo/IDN60701/IDN60701.95940.axf

JavaScript Object Notation format (JSON) in row-major order
http://www.bom.gov.au/fwo/IDN60701/IDN60701.95940.json